Time,TemperatureF,DewpointF,PressureIn,WindDirection,WindDirectionDegrees,WindSpeedMPH,WindSpeedGustMPH,Humidity,HourlyPrecipIn,Conditions,Clouds,dailyrainin,SoftwareType,DateUTC
2013-01-29 00:03:00,37.0,30.0,29.99,NW,323,0.0,0.0,77,0.00,,,0.50,,2013-01-29 05:03:00,
2013-01-29 00:12:00,37.0,30.0,29.99,NW,323,0.0,0.0,77,0.00,,,0.50,,2013-01-29 05:12:00,
2013-01-29 00:21:00,37.0,30.0,29.99,NW,323,0.0,1.0,77,0.00,,,0.50,,2013-01-29 05:21:00,
2013-01-29 00:32:00,37.0,30.0,29.99,NW,323,0.0,0.0,77,0.00,,,0.50,,2013-01-29 05:32:00,
2013-01-29 00:42:00,37.0,30.0,29.99,NW,323,0.0,0.0,77,0.00,,,0.50,,2013-01-29 05:42:00,
2013-01-29 00:52:00,37.0,30.0,29.99,NW,323,0.0,2.0,76,0.00,,,0.50,,2013-01-29 05:52:00,
2013-01-29 01:02:00,36.0,29.0,29.98,NW,323,0.0,2.0,77,0.00,,,0.50,,2013-01-29 06:02:00,
2013-01-29 01:11:00,36.0,29.0,29.98,NW,323,0.0,2.0,77,0.00,,,0.50,,2013-01-29 06:11:00,
2013-01-29 01:21:00,36.0,29.0,29.97,NW,323,1.0,3.0,76,0.00,,,0.50,,2013-01-29 06:21:00,
2013-01-29 01:32:00,36.0,29.0,29.96,NW,323,0.0,0.0,77,0.00,,,0.50,,2013-01-29 06:32:00,
2013-01-29 01:42:00,36.0,29.0,29.96,NW,323,0.0,0.0,77,0.00,,,0.50,,2013-01-29 06:42:00,
2013-01-29 01:52:00,36.0,30.0,29.96,NW,323,0.0,0.0,78,0.00,,,0.50,,2013-01-29 06:52:00,
2013-01-29 02:01:00,36.0,29.0,29.96,NW,323,0.0,0.0,77,0.00,,,0.50,,2013-01-29 07:01:00,
2013-01-29 02:11:00,36.0,29.0,29.96,NW,323,0.0,0.0,77,0.00,,,0.50,,2013-01-29 07:11:00,
2013-01-29 02:21:00,35.0,29.0,29.96,NW,323,0.0,1.0,77,0.00,,,0.50,,2013-01-29 07:21:00,
2013-01-29 02:32:00,35.0,29.0,29.96,NW,323,0.0,2.0,77,0.00,,,0.50,,2013-01-29 07:32:00,
2013-01-29 02:42:00,35.0,29.0,29.96,NW,323,0.0,2.0,77,0.00,,,0.50,,2013-01-29 07:42:00,
2013-01-29 02:52:00,35.0,29.0,29.96,NW,323,0.0,3.0,78,0.00,,,0.50,,2013-01-29 07:52:00,
2013-01-29 03:02:00,35.0,29.0,29.95,NW,323,0.0,0.0,77,0.00,,,0.50,,2013-01-29 08:02:00,
2013-01-29 03:11:00,35.0,29.0,29.95,NW,323,0.0,0.0,77,0.00,,,0.50,,2013-01-29 08:11:00,
2013-01-29 03:21:00,35.0,29.0,29.95,NW,323,0.0,2.0,77,0.00,,,0.50,,2013-01-29 08:21:00,
2013-01-29 03:31:00,35.0,29.0,29.95,NW,323,0.0,0.0,77,0.00,,,0.50,,2013-01-29 08:31:00,
2013-01-29 03:42:00,35.0,29.0,29.95,NW,323,0.0,0.0,77,0.00,,,0.50,,2013-01-29 08:42:00,
2013-01-29 03:52:00,35.0,29.0,29.95,NW,323,1.0,2.0,77,0.00,,,0.50,,2013-01-29 08:52:00,
2013-01-29 04:01:00,34.0,28.0,29.93,NW,323,1.0,3.0,78,0.00,,,0.50,,2013-01-29 09:01:00,
2013-01-29 04:11:00,34.0,28.0,29.93,NW,323,1.0,3.0,78,0.00,,,0.50,,2013-01-29 09:11:00,
2013-01-29 04:21:00,34.0,28.0,29.93,NW,323,1.0,2.0,78,0.00,,,0.50,,2013-01-29 09:21:00,
2013-01-29 04:32:00,34.0,28.0,29.93,NW,323,2.0,3.0,79,0.00,,,0.50,,2013-01-29 09:32:00,
2013-01-29 04:42:00,34.0,28.0,29.93,NW,323,2.0,3.0,79,0.00,,,0.50,,2013-01-29 09:42:00,
2013-01-29 04:51:00,34.0,28.0,29.91,South,176,1.0,5.0,80,0.00,,,0.50,,2013-01-29 09:51:00,
2013-01-29 05:01:00,33.0,28.0,29.90,South,175,1.0,3.0,81,0.00,,,0.50,,2013-01-29 10:01:00,
2013-01-29 05:11:00,33.0,28.0,29.90,South,175,1.0,3.0,81,0.00,,,0.50,,2013-01-29 10:11:00,
2013-01-29 05:21:00,33.0,28.0,29.89,South,176,0.0,5.0,82,0.00,,,0.50,,2013-01-29 10:21:00,
2013-01-29 05:32:00,34.0,29.0,29.91,South,176,1.0,3.0,82,0.00,,,0.50,,2013-01-29 10:32:00,
2013-01-29 05:41:00,34.0,29.0,29.91,South,176,1.0,3.0,82,0.00,,,0.50,,2013-01-29 10:41:00,
2013-01-29 05:52:00,33.0,28.0,29.90,South,176,1.0,3.0,82,0.00,,,0.50,,2013-01-29 10:52:00,
2013-01-29 06:02:00,33.0,28.0,29.86,SSE,152,4.0,7.0,83,0.03,,,0.53,,2013-01-29 11:02:00,
2013-01-29 06:11:00,33.0,28.0,29.86,SSE,152,4.0,7.0,83,0.03,,,0.53,,2013-01-29 11:11:00,
2013-01-29 06:22:00,32.0,28.0,29.84,ESE,114,1.0,7.0,85,0.06,,,0.56,,2013-01-29 11:22:00,
2013-01-29 06:32:00,33.0,29.0,29.88,SE,141,1.0,5.0,85,0.07,,,0.57,,2013-01-29 11:32:00,
2013-01-29 06:42:00,33.0,29.0,29.88,SE,141,1.0,5.0,85,0.07,,,0.57,,2013-01-29 11:42:00,
2013-01-29 06:52:00,34.0,30.0,29.87,SE,141,1.0,2.0,84,0.10,,,0.60,,2013-01-29 11:52:00,
2013-01-29 07:02:00,34.0,29.0,29.86,SE,141,1.0,3.0,83,0.12,,,0.65,,2013-01-29 12:02:00,
2013-01-29 07:12:00,33.0,28.0,29.83,SE,141,2.0,3.0,83,0.09,,,0.65,,2013-01-29 12:12:00,
2013-01-29 07:22:00,33.0,28.0,29.83,SE,141,2.0,3.0,83,0.09,,,0.65,,2013-01-29 12:22:00,
2013-01-29 07:33:00,33.0,29.0,29.83,SE,141,2.0,3.0,84,0.08,,,0.65,,2013-01-29 12:33:00,
2013-01-29 07:43:00,33.0,29.0,29.83,SE,141,2.0,3.0,84,0.08,,,0.65,,2013-01-29 12:43:00,
2013-01-29 07:52:00,33.0,29.0,29.83,SE,141,1.0,3.0,85,0.05,,,0.65,,2013-01-29 12:52:00,
2013-01-29 08:02:00,33.0,29.0,29.82,SE,141,1.0,3.0,86,0.00,,,0.65,,2013-01-29 13:02:00,
2013-01-29 08:12:00,33.0,29.0,29.82,SE,141,1.0,3.0,86,0.00,,,0.65,,2013-01-29 13:12:00,
2013-01-29 08:22:00,33.0,29.0,29.82,SE,141,2.0,5.0,85,0.01,,,0.66,,2013-01-29 13:22:00,
2013-01-29 08:32:00,33.0,29.0,29.81,SSE,147,0.0,3.0,86,0.01,,,0.66,,2013-01-29 13:32:00,
2013-01-29 08:42:00,33.0,29.0,29.81,SSE,147,0.0,3.0,86,0.01,,,0.66,,2013-01-29 13:42:00,
2013-01-29 08:52:00,34.0,30.0,29.82,SSE,147,0.0,2.0,85,0.02,,,0.67,,2013-01-29 13:52:00,
2013-01-29 09:02:00,34.0,30.0,29.82,SSE,147,0.0,2.0,85,0.09,,,0.74,,2013-01-29 14:02:00,
2013-01-29 09:12:00,35.0,31.0,29.81,SSE,147,0.0,1.0,85,0.11,,,0.77,,2013-01-29 14:12:00,
2013-01-29 09:22:00,35.0,31.0,29.81,SSE,147,0.0,1.0,85,0.11,,,0.77,,2013-01-29 14:22:00,
2013-01-29 09:33:00,35.0,31.0,29.80,SSE,147,1.0,3.0,84,0.11,,,0.77,,2013-01-29 14:33:00,
2013-01-29 09:43:00,35.0,31.0,29.80,SSE,147,1.0,3.0,84,0.11,,,0.77,,2013-01-29 14:43:00,
2013-01-29 09:52:00,35.0,31.0,29.81,SSE,147,1.0,3.0,84,0.11,,,0.78,,2013-01-29 14:52:00,
2013-01-29 10:02:00,35.0,31.0,29.79,SSE,147,1.0,3.0,84,0.04,,,0.74,,2013-01-29 15:02:00,
2013-01-29 10:12:00,35.0,31.0,29.79,SSE,147,1.0,3.0,84,0.04,,,0.74,,2013-01-29 15:12:00,
2013-01-29 10:22:00,35.0,31.0,29.78,SSE,147,1.0,3.0,84,0.01,,,0.68,,2013-01-29 15:22:00,
2013-01-29 10:33:00,35.0,31.0,29.79,SSE,147,1.0,2.0,84,0.01,,,0.64,,2013-01-29 15:33:00,
2013-01-29 10:43:00,35.0,31.0,29.79,SSE,147,1.0,2.0,84,0.01,,,0.64,,2013-01-29 15:43:00,
2013-01-29 10:53:00,35.0,31.0,29.78,SSE,147,0.0,1.0,84,0.00,,,0.62,,2013-01-29 15:53:00,
2013-01-29 11:02:00,35.0,30.0,29.78,SSE,147,0.0,1.0,83,0.00,,,0.61,,2013-01-29 16:02:00,
2013-01-29 11:12:00,35.0,30.0,29.78,SSE,147,0.0,1.0,83,0.00,,,0.61,,2013-01-29 16:12:00,
2013-01-29 11:22:00,36.0,32.0,29.77,SSE,147,0.0,0.0,84,0.02,,,0.62,,2013-01-29 16:22:00,
2013-01-29 11:32:00,36.0,32.0,29.77,SSE,147,0.0,0.0,84,0.02,,,0.60,,2013-01-29 16:32:00,
2013-01-29 11:43:00,36.0,32.0,29.77,SSE,147,0.0,0.0,84,0.02,,,0.60,,2013-01-29 16:43:00,
2013-01-29 11:52:00,37.0,33.0,29.76,SSE,147,0.0,0.0,85,0.02,,,0.59,,2013-01-29 16:52:00,
2013-01-29 12:03:00,37.0,33.0,29.75,SSE,147,0.0,0.0,85,0.05,,,0.61,,2013-01-29 17:03:00,
2013-01-29 12:12:00,37.0,33.0,29.75,SSE,147,0.0,0.0,85,0.05,,,0.61,,2013-01-29 17:12:00,
2013-01-29 12:22:00,38.0,34.0,29.75,SSE,147,0.0,0.0,85,0.03,,,0.59,,2013-01-29 17:22:00,
2013-01-29 12:32:00,38.0,34.0,29.75,SSE,147,0.0,0.0,86,0.04,,,0.58,,2013-01-29 17:32:00,
2013-01-29 12:42:00,38.0,34.0,29.75,SSE,147,0.0,0.0,86,0.04,,,0.58,,2013-01-29 17:42:00,
2013-01-29 12:52:00,40.0,38.0,29.73,SSW,195,2.0,5.0,91,0.05,,,0.57,,2013-01-29 17:52:00,
2013-01-29 13:04:00,43.0,41.0,29.72,SSW,195,2.0,3.0,92,0.02,,,0.57,,2013-01-29 18:04:00,
2013-01-29 13:12:00,43.0,41.0,29.72,SSW,195,2.0,3.0,92,0.02,,,0.57,,2013-01-29 18:12:00,
2013-01-29 13:22:00,44.0,42.0,29.70,SSW,194,2.0,5.0,93,0.03,,,0.55,,2013-01-29 18:22:00,
2013-01-29 13:33:00,45.0,43.0,29.70,SW,234,2.0,5.0,92,0.02,,,0.53,,2013-01-29 18:33:00,
2013-01-29 13:42:00,45.0,43.0,29.70,SW,234,2.0,5.0,92,0.02,,,0.53,,2013-01-29 18:42:00,
2013-01-29 13:52:00,46.0,44.0,29.70,West,259,3.0,6.0,93,0.02,,,0.53,,2013-01-29 18:52:00,
2013-01-29 14:03:00,46.0,44.0,29.70,WSW,258,3.0,9.0,92,0.02,,,0.52,,2013-01-29 19:03:00,
2013-01-29 14:12:00,46.0,44.0,29.70,WSW,258,3.0,9.0,92,0.02,,,0.52,,2013-01-29 19:12:00,
2013-01-29 14:22:00,47.0,45.0,29.69,SW,225,3.0,8.0,92,0.01,,,0.50,,2013-01-29 19:22:00,
2013-01-29 14:32:00,47.0,45.0,29.70,SW,232,3.0,6.0,92,0.01,,,0.49,,2013-01-29 19:32:00,
2013-01-29 14:42:00,47.0,45.0,29.70,SW,232,3.0,6.0,92,0.01,,,0.49,,2013-01-29 19:42:00,
2013-01-29 14:52:00,47.0,45.0,29.68,WSW,242,2.0,6.0,93,0.00,,,0.48,,2013-01-29 19:52:00,
2013-01-29 15:02:00,47.0,45.0,29.68,SW,227,2.0,7.0,93,0.00,,,0.47,,2013-01-29 20:02:00,
2013-01-29 15:12:00,47.0,45.0,29.68,SW,227,2.0,7.0,93,0.00,,,0.47,,2013-01-29 20:12:00,
2013-01-29 15:22:00,48.0,46.0,29.67,SW,229,3.0,6.0,93,0.00,,,0.46,,2013-01-29 20:22:00,
2013-01-29 15:33:00,49.0,47.0,29.67,SSW,212,2.0,5.0,92,0.00,,,0.44,,2013-01-29 20:33:00,
2013-01-29 15:42:00,49.0,47.0,29.67,SSW,212,2.0,5.0,92,0.00,,,0.44,,2013-01-29 20:42:00,
2013-01-29 15:53:00,48.0,46.0,29.68,WSW,248,3.0,7.0,93,0.00,,,0.44,,2013-01-29 20:53:00,
2013-01-29 16:03:00,48.0,46.0,29.68,SW,222,5.0,8.0,93,0.00,,,0.43,,2013-01-29 21:03:00,
2013-01-29 16:12:00,48.0,46.0,29.68,SW,222,5.0,8.0,93,0.00,,,0.43,,2013-01-29 21:12:00,
2013-01-29 16:22:00,48.0,46.0,29.68,SW,228,3.0,6.0,92,0.00,,,0.42,,2013-01-29 21:22:00,
2013-01-29 16:33:00,48.0,46.0,29.68,WSW,242,2.0,5.0,93,0.00,,,0.41,,2013-01-29 21:33:00,
2013-01-29 16:42:00,48.0,46.0,29.68,WSW,242,2.0,5.0,93,0.00,,,0.41,,2013-01-29 21:42:00,
2013-01-29 16:52:00,48.0,46.0,29.69,WSW,246,4.0,8.0,93,0.04,,,0.44,,2013-01-29 21:52:00,
2013-01-29 17:03:00,48.0,46.0,29.69,West,259,2.0,6.0,93,0.16,,,0.56,,2013-01-29 22:03:00,
2013-01-29 17:12:00,48.0,46.0,29.69,West,259,2.0,6.0,93,0.16,,,0.56,,2013-01-29 22:12:00,
2013-01-29 17:22:00,48.0,46.0,29.67,SW,230,3.0,6.0,93,0.23,,,0.63,,2013-01-29 22:22:00,
2013-01-29 17:33:00,49.0,47.0,29.68,WSW,241,2.0,5.0,93,0.30,,,0.69,,2013-01-29 22:33:00,
2013-01-29 17:42:00,49.0,47.0,29.68,WSW,241,2.0,5.0,93,0.30,,,0.69,,2013-01-29 22:42:00,
2013-01-29 17:52:00,49.0,47.0,29.68,WSW,250,3.0,6.0,93,0.27,,,0.69,,2013-01-29 22:52:00,
2013-01-29 18:02:00,49.0,47.0,29.68,SW,233,3.0,6.0,93,0.17,,,0.71,,2013-01-29 23:02:00,
2013-01-29 18:12:00,49.0,47.0,29.68,SW,233,3.0,6.0,93,0.17,,,0.71,,2013-01-29 23:12:00,
2013-01-29 18:22:00,49.0,47.0,29.67,SSW,213,2.0,7.0,93,0.10,,,0.71,,2013-01-29 23:22:00,
2013-01-29 18:33:00,49.0,47.0,29.65,South,178,3.0,6.0,93,0.04,,,0.72,,2013-01-29 23:33:00,
2013-01-29 18:42:00,49.0,47.0,29.65,South,178,3.0,6.0,93,0.04,,,0.72,,2013-01-29 23:42:00,
2013-01-29 18:52:00,46.0,44.0,29.67,South,178,1.0,3.0,91,0.03,,,0.72,,2013-01-29 23:52:00,
2013-01-29 19:03:00,47.0,45.0,29.67,South,169,2.0,5.0,92,0.01,,,0.72,,2013-01-30 00:03:00,
2013-01-29 19:12:00,47.0,45.0,29.67,South,169,2.0,5.0,92,0.01,,,0.72,,2013-01-30 00:12:00,
2013-01-29 19:22:00,48.0,46.0,29.66,South,184,3.0,5.0,93,0.01,,,0.72,,2013-01-30 00:22:00,
2013-01-29 19:32:00,48.0,46.0,29.65,SW,221,3.0,7.0,93,0.02,,,0.73,,2013-01-30 00:32:00,
2013-01-29 19:43:00,48.0,46.0,29.65,SW,221,3.0,7.0,93,0.02,,,0.73,,2013-01-30 00:43:00,
2013-01-29 19:52:00,49.0,47.0,29.66,SW,235,3.0,8.0,93,0.03,,,0.74,,2013-01-30 00:52:00,
2013-01-29 20:02:00,49.0,47.0,29.65,SW,227,4.0,8.0,93,0.05,,,0.76,,2013-01-30 01:02:00,
2013-01-29 20:12:00,49.0,47.0,29.65,SW,227,4.0,8.0,93,0.05,,,0.76,,2013-01-30 01:12:00,
2013-01-29 20:22:00,49.0,47.0,29.65,SW,218,3.0,9.0,93,0.05,,,0.76,,2013-01-30 01:22:00,
2013-01-29 20:32:00,49.0,47.0,29.64,SW,230,4.0,9.0,93,0.04,,,0.77,,2013-01-30 01:32:00,
2013-01-29 20:42:00,49.0,47.0,29.64,SW,230,4.0,9.0,93,0.04,,,0.77,,2013-01-30 01:42:00,
2013-01-29 20:52:00,49.0,47.0,29.64,SW,235,2.0,8.0,92,0.03,,,0.77,,2013-01-30 01:52:00,
2013-01-29 21:02:00,50.0,48.0,29.61,South,187,4.0,7.0,92,0.01,,,0.77,,2013-01-30 02:02:00,
2013-01-29 21:12:00,49.0,46.0,29.61,South,186,3.0,6.0,90,0.01,,,0.77,,2013-01-30 02:12:00,
2013-01-29 21:22:00,49.0,46.0,29.61,South,186,3.0,6.0,90,0.01,,,0.77,,2013-01-30 02:22:00,
2013-01-29 21:33:00,45.0,41.0,29.60,South,183,2.0,5.0,87,0.00,,,0.77,,2013-01-30 02:33:00,
2013-01-29 21:42:00,45.0,41.0,29.60,South,183,2.0,5.0,87,0.00,,,0.77,,2013-01-30 02:42:00,
2013-01-29 21:52:00,44.0,41.0,29.59,South,177,3.0,8.0,89,0.00,,,0.77,,2013-01-30 02:52:00,
2013-01-29 22:03:00,43.0,40.0,29.57,South,169,2.0,5.0,90,0.00,,,0.77,,2013-01-30 03:03:00,
2013-01-29 22:12:00,43.0,40.0,29.57,South,169,2.0,5.0,90,0.00,,,0.77,,2013-01-30 03:12:00,
2013-01-29 22:22:00,43.0,41.0,29.57,SSE,158,5.0,9.0,91,0.00,,,0.77,,2013-01-30 03:22:00,
2013-01-29 22:32:00,43.0,40.0,29.56,SSE,156,5.0,8.0,90,0.00,,,0.77,,2013-01-30 03:32:00,
2013-01-29 22:42:00,43.0,40.0,29.56,SSE,156,5.0,8.0,90,0.00,,,0.77,,2013-01-30 03:42:00,
2013-01-29 22:52:00,42.0,39.0,29.54,South,178,3.0,8.0,90,0.00,,,0.77,,2013-01-30 03:52:00,
2013-01-29 23:02:00,42.0,39.0,29.52,SSE,161,5.0,9.0,90,0.00,,,0.77,,2013-01-30 04:02:00,
2013-01-29 23:12:00,42.0,39.0,29.52,SSE,161,5.0,9.0,90,0.00,,,0.77,,2013-01-30 04:12:00,
2013-01-29 23:22:00,42.0,39.0,29.52,South,170,2.0,9.0,90,0.00,,,0.77,,2013-01-30 04:22:00,
2013-01-29 23:32:00,41.0,37.0,29.51,SSE,167,3.0,7.0,87,0.00,,,0.77,,2013-01-30 04:32:00,
2013-01-29 23:41:00,41.0,37.0,29.51,SSE,167,3.0,7.0,87,0.00,,,0.77,,2013-01-30 04:41:00,
2013-01-29 23:52:00,41.0,38.0,29.50,South,177,3.0,6.0,88,0.00,,,0.77,,2013-01-30 04:52:00,